Time;durP1;ratioP1;P1;durP2;ratioP2;P2;SDS_P1;SDS_P2;PMS_P1;PMS_P2;Temp;Humidity;BMP_temperature;BMP_pressure;BME280_temperature;BME280_humidity;BME280_pressure;Samples;Min_cycle;Max_cycle;Signal;HPM_P1;HPM_P2
2023/03/20 00:00:24;;;;;;;41.95;10.65;;;;;;;7.02;100.00;101885.56;5070628;28;20028;-51
2023/03/20 00:02:49;;;;;;;39.83;11.13;;;;;;;7.03;100.00;101889.09;5055512;28;20068;-50
2023/03/20 00:05:20;;;;;;;34.45;9.70;;;;;;;6.98;100.00;101891.34;5069910;28;20036;-52
2023/03/20 00:07:49;;;;;;;33.97;10.48;;;;;;;6.98;100.00;101891.34;5070591;28;20778;-51
2023/03/20 00:10:18;;;;;;;37.30;10.15;;;;;;;6.96;100.00;101898.66;5070876;28;20025;-51
2023/03/20 00:12:45;;;;;;;37.30;9.98;;;;;;;6.94;100.00;101905.94;5070407;28;20029;-52
2023/03/20 00:15:40;;;;;;;43.38;10.65;;;;;;;6.93;100.00;101914.97;5069328;28;20063;-51
2023/03/20 00:18:18;;;;;;;46.38;10.65;;;;;;;6.91;100.00;101931.16;5056701;28;20033;-51
2023/03/20 00:20:45;;;;;;;40.33;10.60;;;;;;;6.90;100.00;101926.78;5060943;28;20064;-50
2023/03/20 00:23:11;;;;;;;33.53;10.23;;;;;;;6.93;100.00;101931.88;5071164;28;20034;-51
2023/03/20 00:25:38;;;;;;;27.67;9.93;;;;;;;6.98;100.00;101907.41;5053410;28;20107;-51
2023/03/20 00:28:42;;;;;;;45.40;10.98;;;;;;;6.99;100.00;101917.09;5050409;28;20078;-50
2023/03/20 00:31:24;;;;;;;34.70;9.75;;;;;;;6.96;100.00;101904.00;5049263;28;20017;-50
2023/03/20 00:33:50;;;;;;;33.08;9.45;;;;;;;6.96;100.00;101899.47;5050414;28;20037;-50
2023/03/20 00:36:16;;;;;;;35.25;9.95;;;;;;;6.97;100.00;101892.28;5036615;28;20032;-50
2023/03/20 00:38:41;;;;;;;28.85;8.98;;;;;;;6.95;100.00;101886.22;5069795;28;20029;-50
2023/03/20 00:41:26;;;;;;;29.75;8.85;;;;;;;6.93;100.00;101896.25;5070285;28;20088;-53
2023/03/20 00:43:58;;;;;;;29.67;9.68;;;;;;;6.90;100.00;101886.66;5069096;28;20407;-52
2023/03/20 00:46:24;;;;;;;36.78;10.23;;;;;;;6.87;100.00;101881.53;5069440;28;20544;-51
2023/03/20 00:48:50;;;;;;;30.90;9.73;;;;;;;6.91;100.00;101872.28;5069851;28;20033;-50
2023/03/20 00:51:16;;;;;;;41.25;11.85;;;;;;;6.95;100.00;101867.50;5062792;28;20079;-50
2023/03/20 00:53:42;;;;;;;41.60;12.75;;;;;;;6.87;100.00;101857.44;5066522;28;20039;-51
2023/03/20 00:56:28;;;;;;;50.65;13.38;;;;;;;6.81;100.00;101872.22;5069743;28;20029;-49
2023/03/20 00:58:53;;;;;;;42.33;12.35;;;;;;;6.72;100.00;101870.34;5069430;28;20379;-52
2023/03/20 01:01:19;;;;;;;46.92;13.40;;;;;;;6.72;100.00;101873.00;5069394;28;20086;-51
2023/03/20 01:03:44;;;;;;;39.25;14.35;;;;;;;6.72;100.00;101862.31;5057966;28;20120;-50
2023/03/20 01:06:11;;;;;;;41.20;13.77;;;;;;;6.67;100.00;101861.00;5064043;28;20090;-51
2023/03/20 01:08:36;;;;;;;59.78;14.88;;;;;;;6.67;100.00;101877.06;5069506;28;20070;-51
2023/03/20 01:11:02;;;;;;;43.90;13.93;;;;;;;6.68;100.00;101878.75;5069465;28;20421;-51
2023/03/20 01:13:30;;;;;;;40.95;13.82;;;;;;;6.66;100.00;101897.63;5069789;28;20040;-53
2023/03/20 01:15:56;;;;;;;46.05;14.02;;;;;;;6.67;100.00;101901.97;5069325;28;20025;-50
2023/03/20 01:18:23;;;;;;;39.55;15.13;;;;;;;6.67;100.00;101903.81;5061453;28;20502;-52
2023/03/20 01:20:49;;;;;;;41.05;14.45;;;;;;;6.70;100.00;101923.13;5060964;28;20047;-52
2023/03/20 01:23:14;;;;;;;48.22;13.93;;;;;;;6.72;100.00;101920.31;5072827;28;20491;-51
2023/03/20 01:25:40;;;;;;;46.58;13.73;;;;;;;6.74;100.00;101935.28;5072879;28;20036;-49
2023/03/20 01:28:13;;;;;;;51.55;14.90;;;;;;;6.73;100.00;101935.38;5072750;28;20035;-51
2023/03/20 01:30:39;;;;;;;49.15;14.35;;;;;;;6.74;100.00;101927.25;5059774;28;20067;-50
2023/03/20 01:33:26;;;;;;;46.53;13.10;;;;;;;6.76;100.00;101922.59;5069985;28;20052;-49
2023/03/20 01:35:52;;;;;;;49.33;14.07;;;;;;;6.75;100.00;101922.75;5069768;28;20042;-51
2023/03/20 01:38:24;;;;;;;48.97;12.77;;;;;;;6.74;100.00;101916.53;5069829;28;20316;-49
2023/03/20 01:40:57;;;;;;;44.13;12.27;;;;;;;6.79;100.00;101919.69;5068988;28;20043;-53
2023/03/20 01:43:25;;;;;;;35.00;11.70;;;;;;;6.81;100.00;101907.00;5054842;28;20131;-50
2023/03/20 01:45:59;;;;;;;47.08;12.15;;;;;;;6.80;100.00;101913.34;5072100;28;20485;-50
2023/03/20 01:48:30;;;;;;;46.28;12.15;;;;;;;6.84;100.00;101913.06;5060656;28;20356;-50
2023/03/20 01:50:55;;;;;;;40.63;11.60;;;;;;;6.85;100.00;101912.09;5067057;28;20119;-50
2023/03/20 01:53:24;;;;;;;45.53;12.50;;;;;;;6.88;100.00;101898.47;5072643;28;20111;-51
2023/03/20 01:55:53;;;;;;;40.03;11.15;;;;;;;6.90;100.00;101899.16;5071055;28;20052;-49
2023/03/20 01:58:24;;;;;;;38.05;12.82;;;;;;;6.97;100.00;101900.31;5071948;28;20036;-49
2023/03/20 02:00:50;;;;;;;46.00;12.13;;;;;;;6.93;100.00;101894.41;5070415;28;20056;-49
2023/03/20 02:03:16;;;;;;;57.75;12.43;;;;;;;6.91;100.00;101876.78;5072331;28;20442;-50
2023/03/20 02:05:43;;;;;;;69.50;14.35;;;;;;;6.90;100.00;101875.06;5070132;28;20041;-51
2023/03/20 02:08:29;;;;;;;41.58;13.45;;;;;;;6.91;100.00;101874.09;5064141;28;20025;-51
2023/03/20 02:10:56;;;;;;;44.13;13.15;;;;;;;6.91;100.00;101871.44;5060718;28;20127;-50
2023/03/20 02:13:21;;;;;;;51.88;13.20;;;;;;;6.84;100.00;101862.22;5062371;28;20065;-50
2023/03/20 02:16:13;;;;;;;50.88;13.88;;;;;;;6.80;100.00;101861.66;5060120;28;20813;-52
2023/03/20 02:18:40;;;;;;;52.13;14.18;;;;;;;6.79;100.00;101855.47;5072011;28;20352;-49
2023/03/20 02:22:00;;;;;;;51.50;14.25;;;;;;;6.73;100.00;101849.78;5069854;28;20044;-51
2023/03/20 02:25:03;;;;;;;46.17;15.20;;;;;;;6.67;100.00;101855.66;4987491;28;20461;-50
2023/03/20 02:27:31;;;;;;;58.03;15.25;;;;;;;6.66;100.00;101837.91;5071830;28;20394;-51
2023/03/20 02:30:30;;;;;;;54.17;14.85;;;;;;;6.62;100.00;101858.72;5070061;28;20111;-50
2023/03/20 02:32:58;;;;;;;46.50;15.85;;;;;;;6.61;100.00;101862.41;5069838;28;20036;-50
2023/03/20 02:35:42;;;;;;;60.88;17.00;;;;;;;6.56;100.00;101849.41;5071533;28;20036;-50
2023/03/20 02:38:29;;;;;;;54.95;16.00;;;;;;;6.58;100.00;101851.94;5071527;28;20024;-52
2023/03/20 02:41:06;;;;;;;48.38;16.05;;;;;;;6.59;100.00;101857.16;5071015;28;20120;-50
2023/03/20 02:44:10;;;;;;;57.75;18.40;;;;;;;6.64;100.00;101870.16;5071400;28;20321;-49
2023/03/20 02:46:51;;;;;;;69.90;17.98;;;;;;;6.57;100.00;101866.28;5054767;28;20048;-50
2023/03/20 02:49:42;;;;;;;53.50;18.27;;;;;;;6.54;100.00;101855.88;5068397;28;20056;-52
2023/03/20 02:52:20;;;;;;;60.53;17.77;;;;;;;6.55;100.00;101852.19;5070058;28;20510;-53
2023/03/20 02:54:53;;;;;;;54.65;16.98;;;;;;;6.54;100.00;101854.03;5056733;28;20075;-50
2023/03/20 02:57:23;;;;;;;59.13;19.52;;;;;;;6.55;100.00;101847.69;5070745;28;20510;-50
2023/03/20 02:59:49;;;;;;;55.58;18.88;;;;;;;6.49;100.00;101836.69;5066437;28;20024;-50
2023/03/20 03:02:34;;;;;;;62.55;18.80;;;;;;;6.50;100.00;101841.03;5070799;28;20492;-52
2023/03/20 03:05:03;;;;;;;61.28;18.45;;;;;;;6.44;100.00;101833.56;5069848;28;20064;-52
2023/03/20 03:07:32;;;;;;;52.22;18.48;;;;;;;6.45;100.00;101825.41;5070712;28;20327;-52
2023/03/20 03:10:11;;;;;;;58.92;19.55;;;;;;;6.37;100.00;101828.72;5066856;28;20024;-51
2023/03/20 03:12:42;;;;;;;62.30;21.48;;;;;;;6.40;100.00;101830.31;5049715;28;20029;-51
2023/03/20 03:15:15;;;;;;;59.47;20.50;;;;;;;6.41;100.00;101833.81;5065775;28;20078;-51
2023/03/20 03:17:42;;;;;;;62.75;21.70;;;;;;;6.41;100.00;101828.47;5064660;28;20035;-52
2023/03/20 03:20:22;;;;;;;58.58;21.33;;;;;;;6.42;100.00;101820.28;5064754;28;20178;-49
2023/03/20 03:22:48;;;;;;;58.97;21.88;;;;;;;6.42;100.00;101814.09;5070378;28;20086;-49
2023/03/20 03:25:14;;;;;;;68.85;22.48;;;;;;;6.45;100.00;101813.84;5069790;28;20036;-52
2023/03/20 03:27:45;;;;;;;56.85;21.40;;;;;;;6.46;100.00;101818.22;5070579;28;20033;-51
2023/03/20 03:30:18;;;;;;;66.15;22.42;;;;;;;6.45;100.00;101809.38;5064155;28;20025;-51
2023/03/20 03:32:50;;;;;;;67.63;21.73;;;;;;;6.47;100.00;101814.56;5070082;28;20048;-50
2023/03/20 03:35:19;;;;;;;66.15;22.80;;;;;;;6.43;100.00;101805.13;5069678;28;20024;-52
2023/03/20 03:38:24;;;;;;;58.58;20.83;;;;;;;6.42;100.00;101820.28;5070573;28;20059;-53
2023/03/20 03:40:57;;;;;;;56.53;21.92;;;;;;;6.45;100.00;101808.50;5067111;28;20037;-51
2023/03/20 03:44:07;;;;;;;60.53;21.23;;;;;;;6.47;100.00;101806.53;5068657;28;20490;-51
2023/03/20 03:46:38;;;;;;;54.65;20.13;;;;;;;6.43;100.00;101810.47;5047676;28;20048;-51
2023/03/20 03:49:04;;;;;;;59.45;21.00;;;;;;;6.42;100.00;101792.72;5052689;28;20383;-50
2023/03/20 03:51:32;;;;;;;60.35;21.20;;;;;;;6.39;100.00;101796.50;5071670;28;20029;-50
2023/03/20 03:54:00;;;;;;;55.97;20.30;;;;;;;6.40;100.00;101794.66;5070166;28;20036;-50
2023/03/20 03:56:28;;;;;;;53.17;20.73;;;;;;;6.40;100.00;101789.31;5070444;28;20063;-50
2023/03/20 03:58:56;;;;;;;55.55;22.45;;;;;;;6.36;100.00;101783.41;5069839;28;20024;-50
2023/03/20 04:01:22;;;;;;;;;;;;;;;6.37;100.00;101785.09;5051157;28;20109;-52
2023/03/20 04:03:59;;;;;;;52.58;20.58;;;;;;;6.36;100.00;101789.59;5053806;28;19987;-51
2023/03/20 04:06:25;;;;;;;62.70;20.27;;;;;;;6.36;100.00;101789.59;5069102;28;20040;-50
2023/03/20 04:08:51;;;;;;;62.50;20.73;;;;;;;6.38;100.00;101797.50;5069766;28;20036;-48
2023/03/20 04:11:19;;;;;;;58.13;21.30;;;;;;;6.38;100.00;101797.50;5070056;28;20107;-50
2023/03/20 04:13:48;;;;;;;;;;;;;;;6.40;100.00;101800.00;5070011;28;20030;-51
2023/03/20 04:16:13;;;;;;;55.35;20.00;;;;;;;6.37;100.00;101804.66;5070413;28;19912;-52
2023/03/20 04:18:39;;;;;;;58.65;20.42;;;;;;;6.40;100.00;101803.56;5069123;28;20111;-51
2023/03/20 04:21:05;;;;;;;52.70;19.63;;;;;;;6.42;100.00;101798.06;5069869;28;20056;-53
2023/03/20 04:23:31;;;;;;;53.92;20.23;;;;;;;6.39;100.00;101804.53;5069502;28;20025;-52
2023/03/20 04:25:56;;;;;;;67.25;20.30;;;;;;;6.42;100.00;101806.09;5070194;28;20024;-50
2023/03/20 04:28:22;;;;;;;53.00;20.88;;;;;;;6.38;100.00;101801.00;5069380;28;20057;-50
2023/03/20 04:30:54;;;;;;;54.88;20.42;;;;;;;6.40;100.00;101792.00;5069530;28;20075;-51
2023/03/20 04:33:20;;;;;;;59.42;19.80;;;;;;;6.41;100.00;101791.03;5068807;28;20037;-50
2023/03/20 04:35:45;;;;;;;56.42;19.30;;;;;;;6.41;100.00;101781.19;5069834;28;20032;-50
2023/03/20 04:38:10;;;;;;;51.58;19.35;;;;;;;6.42;100.00;101776.66;5069495;28;20383;-50
2023/03/20 04:40:36;;;;;;;68.88;20.17;;;;;;;6.40;100.00;101770.59;5068280;28;20035;-51
2023/03/20 04:43:01;;;;;;;70.72;21.58;;;;;;;6.40;100.00;101775.94;5069417;28;20028;-50
2023/03/20 04:45:27;;;;;;;48.17;19.48;;;;;;;6.43;100.00;101767.69;5069357;28;20063;-50
2023/03/20 04:47:52;;;;;;;57.55;18.42;;;;;;;6.42;100.00;101772.16;5069378;28;20038;-50
2023/03/20 04:50:17;;;;;;;59.40;19.25;;;;;;;6.44;100.00;101772.03;5069531;28;20025;-51
2023/03/20 04:52:43;;;;;;;61.15;20.65;;;;;;;6.41;100.00;101765.13;5069589;28;20037;-51
2023/03/20 04:55:08;;;;;;;59.90;19.05;;;;;;;6.38;100.00;101757.38;5069619;28;20082;-53
2023/03/20 04:57:34;;;;;;;67.80;20.42;;;;;;;6.37;100.00;101759.22;5069850;28;20402;-49
2023/03/20 04:59:59;;;;;;;60.63;19.58;;;;;;;6.37;100.00;101759.22;5069182;28;20016;-50
2023/03/20 05:02:26;;;;;;;70.80;22.23;;;;;;;6.40;100.00;101759.91;5069450;28;20509;-51
2023/03/20 05:04:51;;;;;;;63.92;18.88;;;;;;;6.42;100.00;101765.97;5069256;28;20032;-49
2023/03/20 05:07:16;;;;;;;64.80;19.02;;;;;;;6.44;100.00;101764.03;5069313;28;20029;-50
2023/03/20 05:09:42;;;;;;;46.67;18.17;;;;;;;6.41;100.00;101759.78;5069243;28;20030;-49
2023/03/20 05:12:08;;;;;;;67.63;19.77;;;;;;;6.45;100.00;101768.38;5069327;28;20093;-50
2023/03/20 05:14:33;;;;;;;50.47;18.02;;;;;;;6.46;100.00;101767.44;5053187;28;20394;-50
2023/03/20 05:17:00;;;;;;;67.05;19.00;;;;;;;6.46;100.00;101770.09;5071802;28;20101;-50
2023/03/20 05:19:26;;;;;;;68.47;20.00;;;;;;;6.45;100.00;101768.38;5072033;28;20025;-50
2023/03/20 05:21:51;;;;;;;58.60;17.75;;;;;;;6.45;100.00;101766.59;5073595;28;20050;-50
2023/03/20 05:24:17;;;;;;;63.13;18.50;;;;;;;6.44;100.00;101766.69;5073014;28;20049;-51
2023/03/20 05:26:42;;;;;;;66.88;18.77;;;;;;;6.44;100.00;101758.69;5073471;28;20033;-50
2023/03/20 05:29:07;;;;;;;56.05;19.50;;;;;;;6.48;100.00;101760.13;5072450;28;20020;-51
2023/03/20 05:31:33;;;;;;;68.38;18.70;;;;;;;6.48;100.00;101760.13;5072703;28;20020;-50
2023/03/20 05:33:58;;;;;;;56.90;18.75;;;;;;;6.50;100.00;101760.81;5056319;28;20036;-52
2023/03/20 05:36:23;;;;;;;51.40;18.48;;;;;;;6.52;100.00;101772.22;5069767;28;20079;-50
2023/03/20 05:38:49;;;;;;;63.35;18.20;;;;;;;6.52;100.00;101766.88;5067662;28;20033;-49
2023/03/20 05:41:14;;;;;;;53.97;18.23;;;;;;;6.56;100.00;101773.66;5065797;28;20487;-48
2023/03/20 05:43:40;;;;;;;51.58;17.80;;;;;;;6.56;100.00;101768.31;5067012;28;20523;-51
2023/03/20 05:46:05;;;;;;;63.88;17.90;;;;;;;6.56;100.00;101769.16;5072859;28;20101;-53
2023/03/20 05:48:30;;;;;;;59.65;17.45;;;;;;;6.56;100.00;101765.66;5073137;28;20029;-50
2023/03/20 05:50:56;;;;;;;50.92;18.00;;;;;;;6.55;100.00;101775.47;5073108;28;20059;-51
2023/03/20 05:53:21;;;;;;;60.13;17.20;;;;;;;6.52;100.00;101772.22;5072862;28;20074;-51
2023/03/20 05:55:46;;;;;;;66.43;17.90;;;;;;;6.49;100.00;101775.19;5072381;28;20052;-52
2023/03/20 05:58:12;;;;;;;60.45;18.75;;;;;;;6.51;100.00;101775.91;5071794;28;20054;-50
2023/03/20 06:00:38;;;;;;;51.25;17.55;;;;;;;6.49;100.00;101778.69;5072159;28;20426;-51
2023/03/20 06:03:05;;;;;;;56.65;17.40;;;;;;;6.52;100.00;101777.56;5071990;28;20028;-50
2023/03/20 06:05:31;;;;;;;67.05;16.95;;;;;;;6.50;100.00;101780.41;5072095;28;20108;-49
2023/03/20 06:07:57;;;;;;;51.10;16.33;;;;;;;6.51;100.00;101776.75;5072872;28;20043;-51
2023/03/20 06:10:22;;;;;;;51.72;15.52;;;;;;;6.50;100.00;101779.53;5072284;28;20644;-51
2023/03/20 06:12:48;;;;;;;62.05;14.60;;;;;;;6.48;100.00;101787.72;5071931;28;20482;-53
2023/03/20 06:15:13;;;;;;;51.58;15.43;;;;;;;6.52;100.00;101788.28;5071317;28;20033;-50
2023/03/20 06:17:39;;;;;;;58.33;17.73;;;;;;;6.53;100.00;101789.97;5072136;28;20031;-54
2023/03/20 06:20:05;;;;;;;44.63;15.50;;;;;;;6.55;100.00;101788.84;5072315;28;20049;-52
2023/03/20 06:22:31;;;;;;;63.92;15.73;;;;;;;6.62;100.00;101799.88;5071607;28;20032;-52
2023/03/20 06:24:56;;;;;;;60.28;14.93;;;;;;;6.59;100.00;101789.44;5072442;28;20020;-51
2023/03/20 06:27:22;;;;;;;57.88;14.52;;;;;;;6.63;100.00;101795.38;5072368;28;20032;-52
2023/03/20 06:29:47;;;;;;;45.25;14.60;;;;;;;6.63;100.00;101798.88;5072253;28;20032;-50
2023/03/20 06:32:13;;;;;;;53.00;13.70;;;;;;;6.67;100.00;101789.63;5060323;28;20028;-50
2023/03/20 06:34:39;;;;;;;56.63;15.30;;;;;;;6.68;100.00;101804.69;5072462;28;20020;-51
2023/03/20 06:37:04;;;;;;;58.10;12.43;;;;;;;6.71;100.00;101800.91;5071438;28;20116;-51
2023/03/20 06:39:30;;;;;;;46.28;12.63;;;;;;;6.72;100.00;101806.13;5071632;28;20052;-51
2023/03/20 06:41:55;;;;;;;60.47;12.77;;;;;;;6.73;100.00;101804.28;5071920;28;20028;-51
2023/03/20 06:44:21;;;;;;;48.88;12.10;;;;;;;6.75;100.00;101805.03;5071788;28;20032;-50
2023/03/20 06:46:46;;;;;;;54.78;11.27;;;;;;;6.71;100.00;101799.06;5071197;28;20123;-50
2023/03/20 06:49:11;;;;;;;44.70;11.20;;;;;;;6.72;100.00;101798.09;5071750;28;20048;-50
2023/03/20 06:51:37;;;;;;;38.85;11.18;;;;;;;6.73;100.00;101799.78;5071804;28;20031;-50
2023/03/20 06:54:03;;;;;;;59.42;12.18;;;;;;;6.75;100.00;101803.19;5071636;28;20102;-52
2023/03/20 06:56:29;;;;;;;52.33;11.63;;;;;;;6.78;100.00;101804.75;5071192;28;20493;-51
2023/03/20 06:58:55;;;;;;;51.55;11.75;;;;;;;6.79;100.00;101796.59;5071578;28;20033;-51
2023/03/20 07:01:20;;;;;;;42.97;10.75;;;;;;;6.84;100.00;101796.16;5071065;28;20490;-51
2023/03/20 07:03:46;;;;;;;57.42;11.70;;;;;;;6.84;100.00;101795.34;5069452;28;20601;-51
2023/03/20 07:06:12;;;;;;;35.45;9.23;;;;;;;6.86;100.00;101788.03;5070667;28;20035;-52
2023/03/20 07:08:38;;;;;;;51.92;11.13;;;;;;;6.90;100.00;101795.66;5070859;28;20050;-51
2023/03/20 07:11:03;;;;;;;46.45;10.10;;;;;;;6.94;100.00;101805.09;5050884;28;20029;-50
2023/03/20 07:13:30;;;;;;;36.03;10.60;;;;;;;7.00;100.00;101799.22;5058092;28;20473;-50
2023/03/20 07:15:57;;;;;;;48.88;10.75;;;;;;;6.99;100.00;101796.66;5071120;28;20382;-50
2023/03/20 07:18:24;;;;;;;46.60;9.77;;;;;;;7.03;100.00;101811.50;5072195;28;20111;-52
2023/03/20 07:20:51;;;;;;;38.75;11.02;;;;;;;6.99;100.00;101805.53;5073782;28;20089;-51
2023/03/20 07:23:16;;;;;;;39.67;10.53;;;;;;;7.06;100.00;101804.97;5073706;28;20031;-50
2023/03/20 07:25:42;;;;;;;49.38;11.45;;;;;;;7.03;100.00;101814.16;5074262;28;20032;-50
2023/03/20 07:28:07;;;;;;;54.85;11.32;;;;;;;6.96;100.00;101804.97;5074384;28;20494;-51
2023/03/20 07:30:33;;;;;;;35.85;9.30;;;;;;;6.92;100.00;101812.41;5070706;28;20033;-50
2023/03/20 07:32:58;;;;;;;43.90;11.18;;;;;;;6.93;100.00;101829.34;5070633;28;20033;-49
2023/03/20 07:35:23;;;;;;;44.65;10.30;;;;;;;6.93;100.00;101824.81;5071495;28;20036;-50
2023/03/20 07:37:49;;;;;;;43.22;10.50;;;;;;;6.86;100.00;101833.50;5071080;28;20052;-51
2023/03/20 07:40:15;;;;;;;51.15;10.82;;;;;;;6.88;100.00;101836.91;5070777;28;20463;-51
2023/03/20 07:42:40;;;;;;;49.63;10.23;;;;;;;6.81;100.00;101841.94;5071672;28;20129;-52
2023/03/20 07:45:06;;;;;;;51.25;10.88;;;;;;;6.80;100.00;101835.75;5071325;28;20029;-53
2023/03/20 07:47:32;;;;;;;51.58;10.75;;;;;;;6.79;100.00;101844.75;5071488;28;20028;-51
2023/03/20 07:49:57;;;;;;;43.53;10.23;;;;;;;6.76;100.00;101850.34;5071346;28;20392;-50
2023/03/20 07:52:22;;;;;;;53.25;10.98;;;;;;;6.71;100.00;101852.56;5071909;28;20557;-52
2023/03/20 07:54:48;;;;;;;51.50;10.02;;;;;;;6.67;100.00;101851.16;5071825;28;20029;-51
2023/03/20 07:57:13;;;;;;;43.97;9.57;;;;;;;6.70;100.00;101856.25;5070994;28;20052;-54
2023/03/20 07:59:38;;;;;;;43.80;11.15;;;;;;;6.69;100.00;101865.25;5070487;28;20024;-52
2023/03/20 08:02:04;;;;;;;62.78;10.18;;;;;;;6.64;100.00;101854.09;5070397;28;20390;-55
2023/03/20 08:04:29;;;;;;;46.72;10.68;;;;;;;6.66;100.00;101859.31;5070443;28;20392;-56
2023/03/20 08:06:55;;;;;;;56.17;11.02;;;;;;;6.64;100.00;101856.78;5070196;28;20107;-55
2023/03/20 08:09:20;;;;;;;52.40;13.18;;;;;;;6.58;100.00;101867.97;5070470;28;20033;-53
2023/03/20 08:11:46;;;;;;;56.92;11.50;;;;;;;6.60;100.00;101866.88;5070266;28;20109;-52
2023/03/20 08:14:11;;;;;;;54.58;12.30;;;;;;;6.50;100.00;101855.28;5070412;28;20433;-50
2023/03/20 08:16:37;;;;;;;45.22;11.65;;;;;;;6.55;100.00;101858.38;5070268;28;20024;-50
2023/03/20 08:19:04;;;;;;;62.40;12.85;;;;;;;6.57;100.00;101863.63;5070409;28;20024;-50
2023/03/20 08:21:31;;;;;;;56.30;13.60;;;;;;;6.50;100.00;101860.63;5070544;28;20452;-51
2023/03/20 08:23:56;;;;;;;48.17;12.20;;;;;;;6.56;100.00;101864.59;5070493;28;20467;-52
2023/03/20 08:26:22;;;;;;;54.38;12.63;;;;;;;6.58;100.00;101862.63;5070540;28;20043;-52
2023/03/20 08:28:47;;;;;;;62.90;13.10;;;;;;;6.61;100.00;101867.75;5070051;28;20439;-51
2023/03/20 08:31:13;;;;;;;48.40;12.10;;;;;;;6.62;100.00;101868.59;5070282;28;20107;-51
2023/03/20 08:33:38;;;;;;;58.95;11.88;;;;;;;6.63;100.00;101865.75;5070204;28;20036;-51
2023/03/20 08:36:04;;;;;;;53.67;13.15;;;;;;;6.67;100.00;101866.38;5070401;28;20035;-53
2023/03/20 08:38:30;;;;;;;47.25;11.02;;;;;;;6.67;100.00;101872.56;5069999;28;20021;-51
2023/03/20 08:40:55;;;;;;;37.38;10.32;;;;;;;6.70;100.00;101866.94;5070030;28;20021;-50
2023/03/20 08:43:20;;;;;;;46.30;11.32;;;;;;;6.74;100.00;101863.03;5070077;28;20033;-49
2023/03/20 08:45:46;;;;;;;47.92;12.73;;;;;;;6.72;100.00;101867.66;5070265;28;20024;-50
2023/03/20 08:48:12;;;;;;;48.58;12.68;;;;;;;6.78;100.00;101863.59;5070300;28;20028;-53
2023/03/20 08:50:37;;;;;;;43.63;10.88;;;;;;;6.77;100.00;101868.13;5073011;28;20031;-52
2023/03/20 08:53:04;;;;;;;47.83;12.50;;;;;;;6.73;100.00;101858.66;5072770;28;20090;-50
2023/03/20 08:55:29;;;;;;;60.10;12.90;;;;;;;6.85;100.00;101862.09;5073989;28;20036;-51
2023/03/20 08:57:56;;;;;;;52.47;12.00;;;;;;;6.87;100.00;101867.31;5073866;28;20462;-53
2023/03/20 09:00:22;;;;;;;50.10;12.00;;;;;;;6.91;100.00;101866.91;5073981;28;20023;-50
2023/03/20 09:02:48;;;;;;;48.53;11.70;;;;;;;6.99;100.00;101860.91;5073894;28;20032;-50
2023/03/20 09:05:13;;;;;;;57.63;13.43;;;;;;;6.88;100.00;101859.16;5073673;28;20039;-51
2023/03/20 09:07:38;;;;;;;50.80;12.68;;;;;;;6.97;100.00;101853.00;5073703;28;20459;-49
2023/03/20 09:10:04;;;;;;;45.33;14.35;;;;;;;7.00;100.00;101857.22;5072677;28;20096;-52
2023/03/20 09:12:32;;;;;;;41.90;14.57;;;;;;;7.07;100.00;101865.59;5072242;28;20029;-49
2023/03/20 09:14:58;;;;;;;;;;;;;;;6.94;100.00;101868.47;5074185;28;20036;-48
2023/03/20 09:17:23;;;;;;;60.80;14.52;;;;;;;6.94;100.00;101877.34;5073334;28;19908;-51
2023/03/20 09:19:49;;;;;;;59.63;16.30;;;;;;;6.84;100.00;101859.56;5073484;28;20063;-49
2023/03/20 09:22:16;;;;;;;60.53;17.10;;;;;;;6.73;100.00;101865.81;5073557;28;20081;-49
2023/03/20 09:24:42;;;;;;;64.53;17.63;;;;;;;6.78;100.00;101864.44;5074049;28;20032;-55
2023/03/20 09:27:08;;;;;;;52.38;17.67;;;;;;;6.81;100.00;101879.38;5073383;28;20039;-49
2023/03/20 09:29:33;;;;;;;55.45;17.33;;;;;;;6.78;100.00;101863.59;5073451;28;20036;-51
2023/03/20 09:31:58;;;;;;;74.68;20.98;;;;;;;6.86;100.00;101876.31;5073345;28;20067;-51
2023/03/20 09:34:24;;;;;;;59.85;19.33;;;;;;;6.89;100.00;101865.34;5072871;28;20367;-52
2023/03/20 09:36:49;;;;;;;60.85;21.17;;;;;;;6.89;100.00;101876.06;5073337;28;20036;-51
2023/03/20 09:39:15;;;;;;;72.40;20.55;;;;;;;6.85;100.00;101870.13;5073000;28;20078;-50
2023/03/20 09:41:46;;;;;;;66.78;21.00;;;;;;;6.95;100.00;101870.16;5071806;28;20178;-49
2023/03/20 09:44:22;;;;;;;68.40;22.15;;;;;;;7.04;100.00;101869.38;5072954;28;20043;-49
2023/03/20 09:47:15;;;;;;;74.55;22.77;;;;;;;7.08;100.00;101870.78;5073136;28;20232;-48
2023/03/20 09:49:52;;;;;;;55.33;22.52;;;;;;;7.21;100.00;101870.56;5071328;28;20032;-49
2023/03/20 09:52:29;;;;;;;70.87;23.93;;;;;;;7.15;100.00;101866.59;5072788;28;20677;-47
2023/03/20 09:54:57;;;;;;;61.30;20.65;;;;;;;7.26;100.00;101863.81;5073132;28;20070;-50
2023/03/20 09:57:39;;;;;;;82.85;23.02;;;;;;;7.30;100.00;101853.72;5071577;28;20035;-49
2023/03/20 10:00:27;;;;;;;66.25;21.92;;;;;;;7.28;100.00;101853.00;5072694;28;20157;-48
2023/03/20 10:02:58;;;;;;;78.63;21.73;;;;;;;7.29;100.00;101845.78;5071522;28;20576;-48
2023/03/20 10:05:36;;;;;;;54.75;20.38;;;;;;;7.34;100.00;101851.59;5072380;28;20490;-51
2023/03/20 10:08:04;;;;;;;63.53;22.88;;;;;;;7.34;100.00;101849.75;5072485;28;20109;-48
2023/03/20 10:10:38;;;;;;;64.05;22.42;;;;;;;7.35;100.00;101838.09;5054379;28;20031;-50
2023/03/20 10:13:31;;;;;;;67.05;24.00;;;;;;;7.38;100.00;101845.00;5072649;28;20035;-49
2023/03/20 10:16:06;;;;;;;57.75;22.02;;;;;;;7.37;100.00;101844.16;5072309;28;20031;-52
2023/03/20 10:18:34;;;;;;;61.80;22.98;;;;;;;7.32;100.00;101842.84;5070998;28;20028;-50
2023/03/20 10:21:06;;;;;;;83.30;23.45;;;;;;;7.40;100.00;101840.34;5071930;28;20068;-50
2023/03/20 10:23:40;;;;;;;53.45;22.42;;;;;;;7.37;100.00;101830.75;5071242;28;20021;-49
2023/03/20 10:26:12;;;;;;;61.63;22.58;;;;;;;7.47;100.00;101849.50;5071134;28;20028;-49
2023/03/20 10:28:57;;;;;;;50.38;21.13;;;;;;;7.31;100.00;101827.78;5072186;28;20028;-49
2023/03/20 10:31:37;;;;;;;73.45;22.33;;;;;;;7.41;100.00;101831.31;5070872;28;20762;-49
2023/03/20 10:34:12;;;;;;;63.90;22.70;;;;;;;7.36;100.00;101837.09;5072104;28;20063;-52
2023/03/20 10:36:59;;;;;;;74.38;23.45;;;;;;;7.34;100.00;101832.84;5072147;28;20028;-50
2023/03/20 10:39:49;;;;;;;68.10;23.93;;;;;;;7.32;100.00;101830.31;5071735;28;20043;-50
2023/03/20 10:42:22;;;;;;;74.75;23.23;;;;;;;7.45;100.00;101830.06;5072176;28;20614;-48
2023/03/20 10:45:00;;;;;;;66.18;23.15;;;;;;;7.45;100.00;101830.06;5070915;28;20052;-50
2023/03/20 10:47:26;;;;;;;;;;;;;;;7.47;100.00;101822.72;5071083;28;20016;-50
2023/03/20 10:49:56;;;;;;;63.13;23.13;;;;;;;7.42;100.00;101824.97;5071593;28;20311;-50
2023/03/20 10:52:31;;;;;;;77.78;23.02;;;;;;;7.44;100.00;101821.19;5070786;28;20131;-50
2023/03/20 10:55:04;;;;;;;61.53;22.95;;;;;;;7.42;100.00;101816.94;5070697;28;20135;-52
2023/03/20 10:57:32;;;;;;;69.82;22.48;;;;;;;7.45;100.00;101822.00;5070081;28;20040;-51
2023/03/20 10:59:58;;;;;;;57.63;22.88;;;;;;;7.43;100.00;101822.16;5071252;28;20020;-50
2023/03/20 11:02:31;;;;;;;61.50;22.65;;;;;;;7.50;100.00;101818.94;5071123;28;20196;-49
2023/03/20 11:05:00;;;;;;;81.32;23.73;;;;;;;7.52;100.00;101817.81;5071151;28;20086;-51
2023/03/20 11:07:34;;;;;;;69.35;22.60;;;;;;;7.58;100.00;101814.59;5071168;28;20031;-50
2023/03/20 11:10:06;;;;;;;55.28;21.98;;;;;;;7.66;100.00;101817.44;5070977;28;20032;-50
2023/03/20 11:12:33;;;;;;;58.28;21.38;;;;;;;7.51;100.00;101817.97;5070813;28;20165;-51
2023/03/20 11:15:03;;;;;;;66.38;24.83;;;;;;;7.43;100.00;101814.13;5070863;28;20016;-51
2023/03/20 11:17:28;;;;;;;63.10;22.33;;;;;;;7.48;100.00;101803.84;5071142;28;20033;-49
2023/03/20 11:20:03;;;;;;;70.63;23.38;;;;;;;7.45;100.00;101803.28;5070890;28;20051;-49
2023/03/20 11:22:29;;;;;;;73.85;24.55;;;;;;;7.48;100.00;101808.38;5071320;28;20082;-50